< < Back
Terminal Aerodrome Forecast


Current Version              Previous Versions:   1  2  3  4  5  6  7  8  9  

Terminal Aerodrome Forecast

768
FTUS44 KOHX 180500
TAFBNA
TAF
KBNA 180520Z 1806/1906 18005KT P6SM OVC250
     FM180900 11006KT P6SM BKN050=

Latest METAR

516
SAUS70 KWBC 181300 RRC
MTRBNA
METAR KBNA 181253Z 00000KT 10SM SCT046 BKN065 OVC200 13/07 A3031 RMK AO2
SLP261 T01330072


USA.gov is the U.S. government's official web portal to all federal, state and local government web resources and services.